createdAt,value
2022-08-01T00:01:34.595Z,24.60
2022-08-01T00:04:03.111Z,24.60
2022-08-01T00:06:31.635Z,24.60
2022-08-01T00:08:59.994Z,24.60
2022-08-01T00:11:28.422Z,24.60
2022-08-01T00:13:56.874Z,24.50
2022-08-01T00:16:25.522Z,24.50
2022-08-01T00:18:55.406Z,24.50
2022-08-01T00:21:23.982Z,24.50
2022-08-01T00:23:52.428Z,24.50
2022-08-01T00:26:21.109Z,24.50
2022-08-01T00:28:49.515Z,24.40
2022-08-01T00:31:17.911Z,24.50
2022-08-01T00:33:46.301Z,24.50
2022-08-01T00:36:16.086Z,24.50
2022-08-01T00:38:44.458Z,24.50
2022-08-01T00:41:12.859Z,24.50
2022-08-01T00:43:43.561Z,24.40
2022-08-01T00:46:11.928Z,24.50
2022-08-01T00:48:41.488Z,24.50
2022-08-01T00:51:10.478Z,24.50
2022-08-01T00:53:51.999Z,24.50
2022-08-01T00:56:22.532Z,24.50
2022-08-01T00:58:51.047Z,24.50
2022-08-01T01:01:21.687Z,24.50
2022-08-01T01:03:59.434Z,24.50
2022-08-01T01:06:33.081Z,24.50
2022-08-01T01:09:14.424Z,24.50
2022-08-01T01:11:49.663Z,24.50
2022-08-01T01:14:28.549Z,24.50
2022-08-01T01:16:58.227Z,24.50
2022-08-01T01:19:32.611Z,24.50
2022-08-01T01:22:20.250Z,24.50
2022-08-01T01:25:07.709Z,24.50
2022-08-01T01:27:47.700Z,24.50
2022-08-01T01:30:17.842Z,24.50
2022-08-01T01:32:49.964Z,24.50
2022-08-01T01:35:23.491Z,24.50
2022-08-01T01:37:57.338Z,24.50
2022-08-01T01:40:28.029Z,24.50
2022-08-01T01:42:58.516Z,24.50
2022-08-01T01:45:29.507Z,24.50
2022-08-01T01:47:59.175Z,24.40
2022-08-01T01:50:30.794Z,24.40
2022-08-01T01:53:01.474Z,24.40
2022-08-01T01:55:32.162Z,24.40
2022-08-01T01:58:01.901Z,24.40
2022-08-01T02:00:33.123Z,24.30
2022-08-01T02:03:03.767Z,24.30
2022-08-01T02:05:35.424Z,24.30
2022-08-01T02:08:05.766Z,24.30
2022-08-01T02:10:35.898Z,24.30
2022-08-01T02:13:07.602Z,24.20
2022-08-01T02:15:59.883Z,24.20
2022-08-01T02:18:28.301Z,24.20
2022-08-01T02:20:57.964Z,24.10
2022-08-01T02:23:30.212Z,24.10
2022-08-01T02:26:10.588Z,24.10
2022-08-01T02:28:46.075Z,24.00
2022-08-01T02:31:20.207Z,24.00
2022-08-01T02:33:54.401Z,24.00
2022-08-01T02:36:30.585Z,24.00
2022-08-01T02:39:03.180Z,24.00
2022-08-01T02:41:35.668Z,24.00
2022-08-01T02:44:07.629Z,24.00
2022-08-01T02:46:41.947Z,24.00
2022-08-01T02:49:12.813Z,24.00
2022-08-01T02:51:43.277Z,24.00
2022-08-01T02:54:13.569Z,23.90
2022-08-01T02:56:43.787Z,23.90
2022-08-01T02:59:15.533Z,23.90
2022-08-01T03:01:47.841Z,23.90
2022-08-01T03:04:18.903Z,23.90
2022-08-01T03:06:48.111Z,23.80
2022-08-01T03:09:17.858Z,23.80
2022-08-01T03:11:48.977Z,23.70
2022-08-01T03:14:18.441Z,23.70
2022-08-01T03:16:49.109Z,23.70
2022-08-01T03:19:20.472Z,23.70
2022-08-01T03:21:51.119Z,23.60
2022-08-01T03:24:21.055Z,23.60
2022-08-01T03:26:50.958Z,23.60
2022-08-01T03:29:25.715Z,23.60
2022-08-01T03:31:56.348Z,23.60
2022-08-01T03:34:24.813Z,23.60
2022-08-01T03:37:01.813Z,23.60
2022-08-01T03:39:35.973Z,23.50
2022-08-01T03:42:11.154Z,23.50
2022-08-01T03:44:42.439Z,23.50
2022-08-01T03:47:17.874Z,23.50
2022-08-01T03:49:48.276Z,23.50
2022-08-01T03:52:17.955Z,23.50
2022-08-01T03:54:52.458Z,23.50
2022-08-01T03:57:35.758Z,23.50
2022-08-01T04:00:10.032Z,23.50
2022-08-01T04:02:40.831Z,23.50
2022-08-01T04:05:10.154Z,23.50
2022-08-01T04:07:40.403Z,23.50
2022-08-01T04:10:09.496Z,23.50
2022-08-01T04:12:37.832Z,23.40
2022-08-01T04:15:07.904Z,23.40
2022-08-01T04:17:36.297Z,23.30
2022-08-01T04:20:06.953Z,23.30
2022-08-01T04:22:37.487Z,23.20
2022-08-01T04:25:13.249Z,23.20
2022-08-01T04:27:49.829Z,23.20
2022-08-01T04:30:23.549Z,23.20
2022-08-01T04:32:53.345Z,23.20
2022-08-01T04:36:01.527Z,23.20
2022-08-01T04:38:18.666Z,23.20
2022-08-01T04:40:48.374Z,23.20
2022-08-01T04:43:17.131Z,23.20
2022-08-01T04:45:49.798Z,23.20
2022-08-01T04:48:22.721Z,23.20
2022-08-01T04:50:52.992Z,23.20
2022-08-01T04:53:23.592Z,23.20
2022-08-01T04:55:52.041Z,23.20
2022-08-01T04:58:20.701Z,23.20
2022-08-01T05:00:49.358Z,23.20
2022-08-01T05:03:18.034Z,23.30
2022-08-01T05:05:46.414Z,23.30
2022-08-01T05:08:17.404Z,23.40
2022-08-01T05:10:46.007Z,23.40
2022-08-01T05:13:14.389Z,23.40
2022-08-01T05:15:42.748Z,23.40
2022-08-01T05:18:11.138Z,23.50
2022-08-01T05:20:39.836Z,23.50
2022-08-01T05:23:11.115Z,23.60
2022-08-01T05:25:58.036Z,23.60
2022-08-01T05:28:27.369Z,23.70
2022-08-01T05:30:57.645Z,23.80
2022-08-01T05:33:26.051Z,23.80
2022-08-01T05:35:54.522Z,23.90
2022-08-01T05:38:22.925Z,24.00
2022-08-01T05:40:52.759Z,24.00
2022-08-01T05:43:24.352Z,24.10
2022-08-01T05:45:55.391Z,24.20
2022-08-01T05:48:23.755Z,24.30
2022-08-01T05:50:56.767Z,24.30
2022-08-01T05:53:26.922Z,24.40
2022-08-01T05:55:56.794Z,24.40
2022-08-01T05:58:25.233Z,24.50
2022-08-01T06:00:53.713Z,24.50
2022-08-01T06:03:22.331Z,24.60
2022-08-01T06:05:50.717Z,24.70
2022-08-01T06:08:19.311Z,24.80
2022-08-01T06:10:47.698Z,24.80
2022-08-01T06:13:17.484Z,24.90
2022-08-01T06:15:45.874Z,25.00
2022-08-01T06:18:14.439Z,25.10
2022-08-01T06:20:43.279Z,25.20
2022-08-01T06:23:31.147Z,25.20
2022-08-01T06:26:00.465Z,25.30
2022-08-01T06:28:30.875Z,25.40
2022-08-01T06:31:00.556Z,25.40
2022-08-01T06:33:29.752Z,25.50
2022-08-01T06:35:58.330Z,25.60
2022-08-01T06:38:28.334Z,25.70
2022-08-01T06:40:56.757Z,25.80
2022-08-01T06:43:25.168Z,25.90
2022-08-01T06:45:54.883Z,25.90
2022-08-01T06:48:23.862Z,26.00
2022-08-01T06:51:09.004Z,26.00
2022-08-01T06:53:38.417Z,26.00
2022-08-01T06:56:09.674Z,26.10
2022-08-01T06:58:38.387Z,26.10
2022-08-01T07:01:09.120Z,26.20
2022-08-01T07:03:53.796Z,26.30
2022-08-01T07:06:24.124Z,26.30
2022-08-01T07:08:52.803Z,26.40
2022-08-01T07:11:21.245Z,26.40
2022-08-01T07:13:52.621Z,26.40
2022-08-01T07:16:23.160Z,26.50
2022-08-01T07:18:51.915Z,26.50
2022-08-01T07:21:39.985Z,26.60
2022-08-01T07:24:13.975Z,26.60
2022-08-01T07:26:52.319Z,26.70
2022-08-01T07:29:23.415Z,26.80
2022-08-01T07:31:54.200Z,26.90
2022-08-01T07:34:22.928Z,26.90
2022-08-01T07:36:51.728Z,27.00
2022-08-01T07:39:20.231Z,27.00
2022-08-01T07:42:05.790Z,27.10
2022-08-01T07:44:36.366Z,27.10
2022-08-01T07:47:07.550Z,27.10
2022-08-01T07:49:39.998Z,27.20
2022-08-01T07:52:09.093Z,27.20
2022-08-01T07:54:38.069Z,27.30
2022-08-01T07:57:06.894Z,27.30
2022-08-01T07:59:35.673Z,27.40
2022-08-01T08:02:05.901Z,27.40
2022-08-01T08:04:34.587Z,27.50
2022-08-01T08:07:03.334Z,27.50
2022-08-01T08:09:31.979Z,27.60
2022-08-01T08:12:07.718Z,27.60
2022-08-01T08:14:36.307Z,27.60
2022-08-01T08:17:06.949Z,27.70
2022-08-01T08:19:39.007Z,27.80
2022-08-01T08:22:09.233Z,27.80
2022-08-01T08:24:45.540Z,27.90
2022-08-01T08:27:15.449Z,28.00
2022-08-01T08:29:44.014Z,28.10
2022-08-01T08:32:15.004Z,28.20
2022-08-01T08:34:44.037Z,28.20
2022-08-01T08:37:12.824Z,28.30
2022-08-01T08:39:42.688Z,28.30
2022-08-01T08:42:12.261Z,28.40
2022-08-01T08:44:43.648Z,28.40
2022-08-01T08:47:19.854Z,28.40
2022-08-01T08:49:50.462Z,28.40
2022-08-01T08:52:21.115Z,28.40
2022-08-01T08:54:50.471Z,28.50
2022-08-01T08:57:21.043Z,28.40
2022-08-01T08:59:52.917Z,28.40
2022-08-01T09:02:23.062Z,28.40
2022-08-01T09:04:52.343Z,28.50
2022-08-01T09:07:20.750Z,28.50
2022-08-01T09:09:51.633Z,28.50
2022-08-01T09:12:20.531Z,28.60
2022-08-01T09:14:51.258Z,28.70
2022-08-01T09:17:19.986Z,28.70
2022-08-01T09:19:54.558Z,28.70
2022-08-01T09:22:24.654Z,28.70
2022-08-01T09:25:06.053Z,28.80
2022-08-01T09:27:35.606Z,28.90
2022-08-01T09:30:12.354Z,29.00
2022-08-01T09:32:56.587Z,29.00
2022-08-01T09:35:30.755Z,28.90
2022-08-01T09:38:19.804Z,28.90
2022-08-01T09:40:50.216Z,28.90
2022-08-01T09:43:19.481Z,28.80
2022-08-01T09:45:50.609Z,28.70
2022-08-01T09:48:22.455Z,28.70
2022-08-01T09:51:04.723Z,28.60
2022-08-01T09:53:51.012Z,28.60
2022-08-01T09:56:22.785Z,28.60
2022-08-01T09:58:58.799Z,28.60
2022-08-01T10:01:37.028Z,28.70
2022-08-01T10:04:09.633Z,28.70
2022-08-01T10:06:41.763Z,28.70
2022-08-01T10:09:11.630Z,28.80
2022-08-01T10:11:41.216Z,28.80
2022-08-01T10:14:10.497Z,28.80
2022-08-01T10:16:39.543Z,28.90
2022-08-01T10:19:11.312Z,29.00
2022-08-01T10:21:57.916Z,29.00
2022-08-01T10:24:29.762Z,29.10
2022-08-01T10:27:06.167Z,29.10
2022-08-01T10:29:59.779Z,29.10
2022-08-01T10:32:30.849Z,29.20
2022-08-01T10:35:06.212Z,29.30
2022-08-01T10:37:51.518Z,29.30
2022-08-01T10:40:36.988Z,29.30
2022-08-01T10:43:05.786Z,29.30
2022-08-01T10:45:34.488Z,29.40
2022-08-01T10:48:08.422Z,29.40
2022-08-01T10:50:44.248Z,29.50
2022-08-01T10:53:24.045Z,29.50
2022-08-01T10:56:03.198Z,29.60
2022-08-01T10:58:39.787Z,29.70
2022-08-01T11:01:20.493Z,29.70
2022-08-01T11:04:01.706Z,29.80
2022-08-01T11:06:46.246Z,29.90
2022-08-01T11:09:36.262Z,30.00
2022-08-01T11:12:23.330Z,30.00
2022-08-01T11:15:31.036Z,30.10
2022-08-01T11:18:01.729Z,30.10
2022-08-01T11:20:32.577Z,30.20
2022-08-01T11:23:36.085Z,30.20
2022-08-01T11:26:29.001Z,30.10
2022-08-01T11:29:21.883Z,30.10
2022-08-01T11:31:51.483Z,30.10
2022-08-01T11:34:20.370Z,30.00
2022-08-01T11:36:59.206Z,30.10
2022-08-01T11:39:35.482Z,30.20
2022-08-01T11:42:22.697Z,30.20
2022-08-01T11:44:52.530Z,30.30
2022-08-01T11:47:41.080Z,30.30
2022-08-01T11:50:36.499Z,30.40
2022-08-01T11:53:07.768Z,30.50
2022-08-01T11:55:36.975Z,30.50
2022-08-01T11:58:22.462Z,30.50
2022-08-01T12:00:57.761Z,30.50
2022-08-01T12:03:33.527Z,30.50
2022-08-01T12:06:02.992Z,30.40
2022-08-01T12:08:33.983Z,30.40
2022-08-01T12:11:03.477Z,30.40
2022-08-01T12:13:44.485Z,30.30
2022-08-01T12:16:13.588Z,30.30
2022-08-01T12:18:43.551Z,30.30
2022-08-01T12:21:12.109Z,30.30
2022-08-01T12:23:40.808Z,30.30
2022-08-01T12:26:09.329Z,30.20
2022-08-01T12:28:59.226Z,30.20
2022-08-01T12:31:34.241Z,30.30
2022-08-01T12:34:30.104Z,30.30
2022-08-01T12:37:00.886Z,30.30
2022-08-01T12:39:34.234Z,30.30
2022-08-01T12:42:02.974Z,30.30
2022-08-01T12:44:33.426Z,30.50
2022-08-01T12:47:03.278Z,30.60
2022-08-01T12:49:32.548Z,30.70
2022-08-01T12:52:01.371Z,30.90
2022-08-01T12:54:30.276Z,31.00
2022-08-01T12:56:59.234Z,31.00
2022-08-01T12:59:30.071Z,31.20
2022-08-01T13:02:10.254Z,31.30
2022-08-01T13:04:52.911Z,31.30
2022-08-01T13:07:21.373Z,31.40
2022-08-01T13:09:52.707Z,31.40
2022-08-01T13:12:21.133Z,31.40
2022-08-01T13:14:49.552Z,31.50
2022-08-01T13:17:36.996Z,31.50
2022-08-01T13:20:06.684Z,31.50
2022-08-01T13:22:35.643Z,31.70
2022-08-01T13:25:15.485Z,31.70
2022-08-01T13:27:53.778Z,31.70
2022-08-01T13:30:24.169Z,31.70
2022-08-01T13:33:01.745Z,31.70
2022-08-01T13:35:30.288Z,31.70
2022-08-01T13:37:58.815Z,31.70
2022-08-01T13:40:28.870Z,31.80
2022-08-01T13:42:57.926Z,31.80
2022-08-01T13:45:26.620Z,31.90
2022-08-01T13:48:04.109Z,31.90
2022-08-01T13:50:43.063Z,31.90
2022-08-01T13:53:11.812Z,31.90
2022-08-01T13:55:40.170Z,31.90
2022-08-01T13:58:08.836Z,32.00
2022-08-01T14:00:37.517Z,32.00
2022-08-01T14:03:06.664Z,32.00
2022-08-01T14:05:35.053Z,32.00
2022-08-01T14:08:04.997Z,32.10
2022-08-01T14:10:33.675Z,32.10
2022-08-01T14:13:06.654Z,32.10
2022-08-01T14:15:40.183Z,32.10
2022-08-01T14:18:09.504Z,32.00
2022-08-01T14:20:39.143Z,31.90
2022-08-01T14:23:09.558Z,31.90
2022-08-01T14:26:02.914Z,31.90
2022-08-01T14:28:29.317Z,31.80
2022-08-01T14:30:58.104Z,31.80
2022-08-01T14:33:26.520Z,31.70
2022-08-01T14:36:05.334Z,31.70
2022-08-01T14:38:46.315Z,31.60
2022-08-01T14:41:15.811Z,31.50
2022-08-01T14:43:44.270Z,31.50
2022-08-01T14:46:13.856Z,31.50
2022-08-01T14:48:42.841Z,31.50
2022-08-01T14:51:11.343Z,31.40
2022-08-01T14:53:42.917Z,31.40
2022-08-01T14:56:20.826Z,31.50
2022-08-01T14:58:49.351Z,31.40
2022-08-01T15:01:19.044Z,31.50
2022-08-01T15:03:49.129Z,31.50
2022-08-01T15:06:17.621Z,31.50
2022-08-01T15:08:50.599Z,31.50
2022-08-01T15:11:20.572Z,31.60
2022-08-01T15:14:10.306Z,31.60
2022-08-01T15:16:38.875Z,31.70
2022-08-01T15:19:07.304Z,31.70
2022-08-01T15:21:41.829Z,31.70
2022-08-01T15:24:11.456Z,31.70
2022-08-01T15:26:41.354Z,31.70
2022-08-01T15:29:09.783Z,31.60
2022-08-01T15:31:39.219Z,31.60
2022-08-01T15:34:07.590Z,31.60
2022-08-01T15:36:35.970Z,31.60
2022-08-01T15:39:04.658Z,31.50
2022-08-01T15:41:33.075Z,31.50
2022-08-01T15:44:02.868Z,31.50
2022-08-01T15:46:31.373Z,31.50
2022-08-01T15:48:59.897Z,31.90
2022-08-01T15:51:28.315Z,32.20
2022-08-01T15:53:56.684Z,32.20
2022-08-01T15:56:25.180Z,32.00
2022-08-01T15:58:53.559Z,31.90
2022-08-01T16:01:23.603Z,31.80
2022-08-01T16:03:52.035Z,31.70
2022-08-01T16:06:24.802Z,31.60
2022-08-01T16:08:53.345Z,31.50
2022-08-01T16:11:23.893Z,31.40
2022-08-01T16:13:52.433Z,31.20
2022-08-01T16:16:25.156Z,31.20
2022-08-01T16:18:54.068Z,31.10
2022-08-01T16:21:24.083Z,31.00
2022-08-01T16:23:53.170Z,30.90
2022-08-01T16:26:27.761Z,30.80
2022-08-01T16:28:58.116Z,30.70
2022-08-01T16:31:37.915Z,30.70
2022-08-01T16:34:21.172Z,30.60
2022-08-01T16:36:53.355Z,30.50
2022-08-01T16:39:23.693Z,30.40
2022-08-01T16:41:55.052Z,30.40
2022-08-01T16:44:33.172Z,30.30
2022-08-01T16:47:09.745Z,30.30
2022-08-01T16:49:39.110Z,30.20
2022-08-01T16:52:08.268Z,30.10
2022-08-01T16:54:36.951Z,30.10
2022-08-01T16:57:07.865Z,30.00
2022-08-01T16:59:41.546Z,30.00
2022-08-01T17:02:12.310Z,29.90
2022-08-01T17:04:40.803Z,29.90
2022-08-01T17:07:09.657Z,29.90
2022-08-01T17:09:42.941Z,29.80
2022-08-01T17:12:13.955Z,29.80
2022-08-01T17:14:51.344Z,29.70
2022-08-01T17:17:21.746Z,29.70
2022-08-01T17:19:50.636Z,29.60
2022-08-01T17:22:19.352Z,29.50
2022-08-01T17:24:47.991Z,29.50
2022-08-01T17:27:16.735Z,29.50
2022-08-01T17:29:45.438Z,29.40
2022-08-01T17:32:14.587Z,29.40
2022-08-01T17:34:44.514Z,29.30
2022-08-01T17:37:13.082Z,29.30
2022-08-01T17:39:41.665Z,29.20
2022-08-01T17:42:11.072Z,29.20
2022-08-01T17:44:41.525Z,29.10
2022-08-01T17:47:10.498Z,29.10
2022-08-01T17:49:54.340Z,29.10
2022-08-01T17:52:26.155Z,29.00
2022-08-01T17:54:58.418Z,28.90
2022-08-01T17:57:27.095Z,28.90
2022-08-01T17:59:55.675Z,28.90
2022-08-01T18:02:24.134Z,28.80
2022-08-01T18:04:53.088Z,28.80
2022-08-01T18:08:01.257Z,28.70
2022-08-01T18:10:12.823Z,28.70
2022-08-01T18:12:41.821Z,28.60
2022-08-01T18:15:10.815Z,28.60
2022-08-01T18:17:43.963Z,28.50
2022-08-01T18:20:13.077Z,28.50
2022-08-01T18:22:42.858Z,28.40
2022-08-01T18:25:11.621Z,28.40
2022-08-01T18:28:22.644Z,28.30
2022-08-01T18:30:29.048Z,28.30
2022-08-01T18:32:57.814Z,28.20
2022-08-01T18:35:51.712Z,28.20
2022-08-01T18:38:17.180Z,28.20
2022-08-01T18:40:46.034Z,28.10
2022-08-01T18:43:14.729Z,28.10
2022-08-01T18:45:43.315Z,28.00
2022-08-01T18:48:12.165Z,28.00
2022-08-01T18:50:40.684Z,27.90
2022-08-01T18:53:09.134Z,27.80
2022-08-01T18:55:38.933Z,27.70
2022-08-01T18:58:07.274Z,27.70
2022-08-01T19:00:35.855Z,27.60
2022-08-01T19:03:04.446Z,27.60
2022-08-01T19:05:35.178Z,27.50
2022-08-01T19:08:07.591Z,27.50
2022-08-01T19:10:38.287Z,27.40
2022-08-01T19:13:07.917Z,27.40
2022-08-01T19:15:36.898Z,27.40
2022-08-01T19:18:05.867Z,27.30
2022-08-01T19:20:34.224Z,27.30
2022-08-01T19:23:22.826Z,27.30
2022-08-01T19:25:56.249Z,27.30
2022-08-01T19:28:26.628Z,27.30
2022-08-01T19:30:56.156Z,27.20
2022-08-01T19:33:24.863Z,27.20
2022-08-01T19:35:56.700Z,27.10
2022-08-01T19:38:27.921Z,27.10
2022-08-01T19:40:58.800Z,27.10
2022-08-01T19:43:28.116Z,27.10
2022-08-01T19:45:56.730Z,27.10
2022-08-01T19:48:25.502Z,27.10
2022-08-01T19:50:55.374Z,27.00
2022-08-01T19:53:25.332Z,27.00
2022-08-01T19:55:54.437Z,27.00
2022-08-01T19:58:27.313Z,26.90
2022-08-01T20:00:56.764Z,26.90
2022-08-01T20:03:25.367Z,26.90
2022-08-01T20:05:57.181Z,26.90
2022-08-01T20:08:27.397Z,26.80
2022-08-01T20:10:56.255Z,26.80
2022-08-01T20:13:26.419Z,26.70
2022-08-01T20:16:07.589Z,26.70
2022-08-01T20:18:36.005Z,26.70
2022-08-01T20:21:06.413Z,26.70
2022-08-01T20:23:38.513Z,26.70
2022-08-01T20:26:07.665Z,26.60
2022-08-01T20:28:41.964Z,26.60
2022-08-01T20:31:11.411Z,26.60
2022-08-01T20:33:42.740Z,26.50
2022-08-01T20:36:25.081Z,26.50
2022-08-01T20:38:56.568Z,26.50
2022-08-01T20:41:26.426Z,26.40
2022-08-01T20:43:59.540Z,26.40
2022-08-01T20:46:29.837Z,26.40
2022-08-01T20:48:59.226Z,26.40
2022-08-01T20:51:28.298Z,26.30
2022-08-01T20:53:57.554Z,26.30
2022-08-01T20:56:31.434Z,26.20
2022-08-01T20:59:10.387Z,26.20
2022-08-01T21:02:07.387Z,26.20
2022-08-01T21:04:47.162Z,26.20
2022-08-01T21:07:26.965Z,26.20
2022-08-01T21:10:02.016Z,26.20
2022-08-01T21:12:44.996Z,26.20
2022-08-01T21:15:30.651Z,26.10
2022-08-01T21:18:04.334Z,26.10
2022-08-01T21:20:34.666Z,26.10
2022-08-01T21:23:24.578Z,26.10
2022-08-01T21:25:54.287Z,26.10
2022-08-01T21:28:25.232Z,26.10
2022-08-01T21:30:57.903Z,26.10
2022-08-01T21:33:29.333Z,26.10
2022-08-01T21:36:05.795Z,26.10
2022-08-01T21:38:36.727Z,26.10
2022-08-01T21:41:07.962Z,26.10
2022-08-01T21:43:37.567Z,26.10
2022-08-01T21:46:07.328Z,26.00
2022-08-01T21:48:36.756Z,26.00
2022-08-01T21:51:18.169Z,26.00
2022-08-01T21:54:05.354Z,25.90
2022-08-01T21:56:47.758Z,25.90
2022-08-01T21:59:24.985Z,25.90
2022-08-01T22:02:01.239Z,25.90
2022-08-01T22:04:38.388Z,25.80
2022-08-01T22:07:11.365Z,25.80
2022-08-01T22:09:41.063Z,25.80
2022-08-01T22:12:13.527Z,25.80
2022-08-01T22:14:46.032Z,25.70
2022-08-01T22:17:22.728Z,25.70
2022-08-01T22:19:54.087Z,25.70
2022-08-01T22:22:50.492Z,25.70
2022-08-01T22:25:13.590Z,25.70
2022-08-01T22:28:03.221Z,25.60
2022-08-01T22:30:31.347Z,25.60
2022-08-01T22:33:07.168Z,25.60
2022-08-01T22:35:45.074Z,25.60
2022-08-01T22:38:13.552Z,25.50
2022-08-01T22:40:50.616Z,25.60
2022-08-01T22:43:35.721Z,25.50
2022-08-01T22:46:30.210Z,25.50
2022-08-01T22:49:09.024Z,25.40
2022-08-01T22:51:54.542Z,25.40
2022-08-01T22:54:30.044Z,25.40
2022-08-01T22:57:01.249Z,25.40
2022-08-01T22:59:42.395Z,25.30
2022-08-01T23:02:16.020Z,25.30
2022-08-01T23:04:48.390Z,25.30
2022-08-01T23:07:21.266Z,25.30
2022-08-01T23:09:53.822Z,25.30
2022-08-01T23:12:25.440Z,25.20
2022-08-01T23:14:56.115Z,25.20
2022-08-01T23:17:28.942Z,25.20
2022-08-01T23:20:01.593Z,25.10
2022-08-01T23:22:32.309Z,25.10
2022-08-01T23:25:04.128Z,25.10
2022-08-01T23:27:52.002Z,25.10
2022-08-01T23:30:27.010Z,25.00
2022-08-01T23:32:55.972Z,25.00
2022-08-01T23:35:25.967Z,25.00
2022-08-01T23:38:02.495Z,24.90
2022-08-01T23:40:32.983Z,24.90
2022-08-01T23:43:02.130Z,24.90
2022-08-01T23:46:02.586Z,24.80
2022-08-01T23:48:19.118Z,24.80
2022-08-01T23:50:48.917Z,24.80
2022-08-01T23:53:17.312Z,24.70
2022-08-01T23:55:47.494Z,24.80
2022-08-01T23:58:16.671Z,24.80
